createdAt,value
2018-03-04T00:00:20.882Z,58.23
2018-03-04T00:02:49.630Z,60.07
2018-03-04T00:05:17.702Z,61.43
2018-03-04T00:07:45.594Z,59.17
2018-03-04T00:10:13.507Z,56.93
2018-03-04T00:12:41.402Z,55.00
2018-03-04T00:15:09.271Z,55.80
2018-03-04T00:17:37.137Z,56.23
2018-03-04T00:20:05.004Z,57.33
2018-03-04T00:22:41.986Z,55.90
2018-03-04T00:25:10.059Z,54.63
2018-03-04T00:27:38.121Z,53.53
2018-03-04T00:30:06.101Z,53.33
2018-03-04T00:32:34.283Z,56.87
2018-03-04T00:35:02.399Z,57.27
2018-03-04T00:37:30.209Z,59.60
2018-03-04T00:39:58.057Z,59.20
2018-03-04T00:42:25.850Z,61.27
2018-03-04T00:44:53.708Z,55.87
2018-03-04T00:47:21.583Z,57.93
2018-03-04T00:49:49.545Z,52.43
2018-03-04T00:52:17.412Z,50.47
2018-03-04T00:54:45.325Z,52.70
2018-03-04T00:57:13.964Z,51.93
2018-03-04T00:59:41.840Z,51.40
2018-03-04T01:02:09.903Z,49.03
2018-03-04T01:04:37.783Z,50.87
2018-03-04T01:07:05.740Z,50.53
2018-03-04T01:09:33.607Z,51.87
2018-03-04T01:12:01.426Z,52.87
2018-03-04T01:14:29.351Z,50.17
2018-03-04T01:16:57.228Z,49.70
2018-03-04T01:19:25.073Z,51.40
2018-03-04T01:21:53.146Z,51.50
2018-03-04T01:24:21.115Z,50.07
2018-03-04T01:26:49.113Z,48.93
2018-03-04T01:29:17.771Z,51.53
2018-03-04T01:31:45.792Z,48.77
2018-03-04T01:34:14.391Z,50.83
2018-03-04T01:36:42.198Z,52.40
2018-03-04T01:39:10.075Z,48.50
2018-03-04T01:41:37.924Z,49.13
2018-03-04T01:44:05.789Z,50.90
2018-03-04T01:46:33.602Z,50.70
2018-03-04T01:49:02.073Z,52.73
2018-03-04T01:51:42.507Z,116.80
2018-03-04T01:54:10.423Z,67.47
2018-03-04T01:56:38.447Z,60.53
2018-03-04T01:59:06.312Z,114.13
2018-03-04T02:01:34.193Z,132.13
2018-03-04T02:04:02.222Z,57.30
2018-03-04T02:06:30.057Z,54.07
2018-03-04T02:08:58.705Z,53.43
2018-03-04T02:11:26.727Z,49.90
2018-03-04T02:13:55.018Z,53.03
2018-03-04T02:16:23.030Z,51.93
2018-03-04T02:18:50.887Z,52.27
2018-03-04T02:21:18.751Z,50.13
2018-03-04T02:23:46.712Z,49.17
2018-03-04T02:26:14.783Z,50.43
2018-03-04T02:28:42.653Z,50.63
2018-03-04T02:31:10.519Z,48.87
2018-03-04T02:33:38.488Z,49.10
2018-03-04T02:36:06.353Z,47.83
2018-03-04T02:38:34.264Z,46.77
2018-03-04T02:41:02.809Z,51.87
2018-03-04T02:43:30.568Z,51.67
2018-03-04T02:45:58.437Z,52.43
2018-03-04T02:48:26.410Z,51.00
2018-03-04T02:50:54.334Z,52.53
2018-03-04T02:53:22.244Z,52.60
2018-03-04T02:55:50.259Z,49.70
2018-03-04T02:58:18.907Z,48.73
2018-03-04T03:00:46.763Z,49.77
2018-03-04T03:03:14.801Z,50.60
2018-03-04T03:05:42.712Z,48.33
2018-03-04T03:08:10.679Z,50.47
2018-03-04T03:10:38.641Z,51.00
2018-03-04T03:13:06.343Z,50.00
2018-03-04T03:15:34.999Z,52.63
2018-03-04T03:18:02.856Z,51.27
2018-03-04T03:20:30.723Z,53.47
2018-03-04T03:22:58.903Z,51.23
2018-03-04T03:25:26.915Z,52.77
2018-03-04T03:27:55.671Z,50.47
2018-03-04T03:49:25.725Z,45.93
2018-03-04T03:51:53.599Z,48.63
2018-03-04T03:54:22.279Z,53.83
2018-03-04T03:56:50.234Z,53.40
2018-03-04T03:59:18.089Z,53.23
2018-03-04T04:01:45.950Z,54.13
2018-03-04T04:04:13.944Z,53.30
2018-03-04T04:06:42.817Z,53.30
2018-03-04T04:09:10.787Z,57.23
2018-03-04T04:11:38.857Z,52.77
2018-03-04T04:14:06.725Z,51.00
2018-03-04T04:16:34.675Z,50.77
2018-03-04T04:19:02.476Z,52.40
2018-03-04T04:21:30.266Z,52.37
2018-03-04T04:23:58.909Z,53.93
2018-03-04T04:26:26.940Z,51.93
2018-03-04T04:28:54.791Z,48.83
2018-03-04T04:31:23.431Z,51.83
2018-03-04T04:33:51.399Z,50.40
2018-03-04T04:36:19.204Z,52.00
2018-03-04T04:38:47.906Z,52.47
2018-03-04T04:41:15.728Z,51.10
2018-03-04T04:43:43.594Z,52.97
2018-03-04T04:46:11.458Z,50.63
2018-03-04T04:48:39.365Z,52.17
2018-03-04T04:51:08.022Z,52.03
2018-03-04T04:53:36.689Z,51.37
2018-03-04T04:56:04.492Z,48.97
2018-03-04T04:58:33.254Z,50.50
2018-03-04T05:01:01.111Z,51.10
2018-03-04T05:03:28.989Z,49.53
2018-03-04T05:05:57.600Z,53.53
2018-03-04T05:08:26.251Z,49.70
2018-03-04T05:10:54.056Z,50.80
2018-03-04T05:13:22.603Z,51.00
2018-03-04T05:15:50.472Z,54.77
2018-03-04T05:18:18.336Z,53.03
2018-03-04T05:20:46.297Z,53.73
2018-03-04T05:23:14.268Z,52.83
2018-03-04T05:25:42.133Z,54.37
2018-03-04T05:28:10.001Z,53.50
2018-03-04T05:30:37.883Z,53.30
2018-03-04T05:33:05.736Z,52.23
2018-03-04T05:35:33.609Z,51.97
2018-03-04T05:38:01.469Z,55.43
2018-03-04T05:40:29.344Z,54.00
2018-03-04T05:42:57.309Z,52.53
2018-03-04T05:45:25.285Z,55.73
2018-03-04T05:47:53.446Z,53.43
2018-03-04T05:50:21.527Z,54.27
2018-03-04T05:52:49.398Z,56.03
2018-03-04T05:55:17.186Z,51.90
2018-03-04T05:57:45.960Z,54.37
2018-03-04T06:00:15.340Z,53.30
2018-03-04T06:02:43.218Z,54.67
2018-03-04T06:05:11.292Z,52.97
2018-03-04T06:07:39.165Z,55.03
2018-03-04T06:10:06.974Z,55.93
2018-03-04T06:12:36.520Z,55.47
2018-03-04T06:15:04.394Z,54.67
2018-03-04T06:17:32.355Z,56.77
2018-03-04T06:20:00.325Z,55.83
2018-03-04T06:22:28.202Z,57.77
2018-03-04T06:24:56.008Z,56.87
2018-03-04T06:27:23.925Z,54.93
2018-03-04T06:29:51.909Z,56.77
2018-03-04T06:32:19.760Z,57.20
2018-03-04T06:34:47.802Z,55.60
2018-03-04T06:37:15.701Z,56.50
2018-03-04T06:39:43.771Z,57.77
2018-03-04T06:42:11.739Z,57.10
2018-03-04T06:44:40.117Z,56.97
2018-03-04T06:47:07.925Z,56.10
2018-03-04T06:49:36.566Z,56.50
2018-03-04T06:52:04.437Z,57.97
2018-03-04T06:54:32.390Z,58.83
2018-03-04T06:57:00.272Z,59.63
2018-03-04T06:59:28.242Z,59.03
2018-03-04T07:01:56.372Z,59.50
2018-03-04T07:04:24.182Z,59.93
2018-03-04T07:06:52.311Z,59.50
2018-03-04T07:09:20.388Z,58.53
2018-03-04T07:11:48.193Z,60.20
2018-03-04T07:14:16.070Z,59.83
2018-03-04T07:16:43.873Z,60.90
2018-03-04T07:19:12.587Z,57.50
2018-03-04T07:21:40.415Z,59.07
2018-03-04T07:24:08.960Z,60.10
2018-03-04T07:26:37.153Z,58.20
2018-03-04T07:29:05.102Z,58.00
2018-03-04T07:31:33.072Z,61.70
2018-03-04T07:34:00.933Z,65.00
2018-03-04T07:36:28.798Z,61.40
2018-03-04T07:38:56.835Z,57.93
2018-03-04T07:41:24.896Z,57.13
2018-03-04T07:43:53.814Z,55.03
2018-03-04T07:46:21.810Z,54.87
2018-03-04T07:48:49.806Z,53.63
2018-03-04T07:51:17.646Z,54.00
2018-03-04T07:53:45.798Z,54.57
2018-03-04T07:56:13.689Z,57.10
2018-03-04T07:58:41.507Z,54.37
2018-03-04T08:01:09.422Z,105.87
2018-03-04T08:03:37.491Z,120.43
2018-03-04T08:06:05.349Z,64.63
2018-03-04T08:08:33.289Z,66.53
2018-03-04T08:11:01.373Z,66.57
2018-03-04T08:13:29.267Z,66.50
2018-03-04T08:15:57.144Z,65.03
2018-03-04T08:18:25.116Z,64.30
2018-03-04T08:20:52.973Z,63.13
2018-03-04T08:23:20.843Z,147.60
2018-03-04T08:25:48.705Z,119.07
2018-03-04T08:28:28.603Z,62.87
2018-03-04T08:30:57.292Z,63.07
2018-03-04T08:33:25.160Z,63.87
2018-03-04T08:35:53.277Z,61.77
2018-03-04T08:38:21.264Z,61.87
2018-03-04T08:40:49.123Z,64.23
2018-03-04T08:43:16.981Z,64.40
2018-03-04T08:45:44.836Z,65.97
2018-03-04T08:48:12.884Z,64.53
2018-03-04T08:50:40.907Z,69.63
2018-03-04T08:53:08.757Z,65.73
2018-03-04T08:55:36.725Z,67.80
2018-03-04T08:58:04.499Z,67.50
2018-03-04T09:00:32.586Z,63.97
2018-03-04T09:03:00.428Z,61.23
2018-03-04T09:05:28.391Z,63.93
2018-03-04T09:07:56.265Z,61.07
2018-03-04T09:10:24.131Z,61.83
2018-03-04T09:12:52.202Z,61.67
2018-03-04T09:15:20.173Z,62.13
2018-03-04T09:17:48.041Z,91.53
2018-03-04T09:20:15.906Z,105.27
2018-03-04T09:22:43.875Z,60.13
2018-03-04T09:25:11.744Z,59.57
2018-03-04T09:27:39.711Z,58.87
2018-03-04T09:30:07.963Z,59.63
2018-03-04T09:32:35.855Z,58.30
2018-03-04T09:35:03.746Z,58.30
2018-03-04T09:37:32.407Z,58.37
2018-03-04T09:40:00.452Z,57.17
2018-03-04T09:42:28.347Z,54.33
2018-03-04T09:44:56.522Z,54.07
2018-03-04T09:47:24.405Z,53.90
2018-03-04T09:49:52.458Z,52.53
2018-03-04T09:52:20.324Z,53.80
2018-03-04T09:54:48.571Z,52.03
2018-03-04T09:57:16.471Z,53.63
2018-03-04T09:59:44.643Z,51.00
2018-03-04T10:02:12.604Z,52.13
2018-03-04T10:04:40.582Z,49.37
2018-03-04T10:07:08.550Z,49.87
2018-03-04T10:09:36.529Z,50.03
2018-03-04T10:12:04.487Z,50.27
2018-03-04T10:14:32.538Z,50.63
2018-03-04T10:17:00.362Z,49.77
2018-03-04T10:19:29.113Z,146.70
2018-03-04T10:21:57.355Z,112.23
2018-03-04T10:24:25.457Z,50.20
2018-03-04T10:26:53.327Z,47.20
2018-03-04T10:29:21.467Z,47.23
2018-03-04T10:31:49.370Z,43.90
2018-03-04T10:34:17.237Z,44.13
2018-03-04T10:36:45.100Z,41.23
2018-03-04T10:39:12.972Z,39.07
2018-03-04T10:41:40.941Z,40.77
2018-03-04T10:44:08.819Z,41.50
2018-03-04T10:46:36.877Z,41.17
2018-03-04T10:49:04.753Z,41.60
2018-03-04T10:51:32.636Z,39.73
2018-03-04T10:54:01.226Z,40.13
2018-03-04T10:56:29.060Z,41.17
2018-03-04T10:58:56.930Z,44.73
2018-03-04T11:01:28.792Z,42.77
2018-03-04T11:03:56.882Z,43.73
2018-03-04T11:06:24.928Z,40.07
2018-03-04T11:08:53.512Z,41.37
2018-03-04T11:11:25.040Z,37.77
2018-03-04T11:13:56.100Z,40.20
2018-03-04T11:16:25.166Z,38.33
2018-03-04T11:18:53.539Z,37.47
2018-03-04T11:21:21.529Z,36.33
2018-03-04T11:23:49.424Z,48.50
2018-03-04T11:26:17.290Z,79.50
2018-03-04T11:28:45.077Z,48.17
2018-03-04T11:31:13.129Z,35.13
2018-03-04T11:33:41.055Z,35.37
2018-03-04T11:36:08.860Z,33.17
2018-03-04T11:38:36.837Z,33.03
2018-03-04T11:41:04.704Z,34.13
2018-03-04T11:43:32.563Z,33.23
2018-03-04T11:46:00.531Z,34.07
2018-03-04T11:48:28.399Z,34.70
2018-03-04T11:50:56.267Z,35.23
2018-03-04T11:53:24.257Z,34.97
2018-03-04T11:55:52.290Z,36.83
2018-03-04T11:58:20.071Z,35.83
2018-03-04T12:00:48.051Z,35.53
2018-03-04T12:03:16.237Z,34.03
2018-03-04T12:05:44.181Z,35.60
2018-03-04T12:08:12.152Z,34.17
2018-03-04T12:10:40.123Z,34.13
2018-03-04T12:13:08.024Z,34.20
2018-03-04T12:15:36.778Z,33.47
2018-03-04T12:18:04.557Z,34.60
2018-03-04T12:20:32.409Z,34.37
2018-03-04T12:23:00.378Z,34.53
2018-03-04T12:25:28.245Z,33.53
2018-03-04T12:27:56.223Z,35.47
2018-03-04T12:30:24.184Z,34.00
2018-03-04T12:32:52.293Z,34.77
2018-03-04T12:35:20.941Z,34.20
2018-03-04T12:37:48.761Z,33.27
2018-03-04T12:40:16.573Z,34.10
2018-03-04T12:42:44.645Z,34.70
2018-03-04T12:45:12.640Z,48.30
2018-03-04T12:47:40.500Z,41.33
2018-03-04T12:50:08.386Z,32.70
2018-03-04T12:52:37.236Z,34.93
2018-03-04T12:55:05.210Z,34.13
2018-03-04T12:57:33.083Z,36.47
2018-03-04T13:00:02.242Z,32.07
2018-03-04T13:02:31.643Z,32.77
2018-03-04T13:04:59.688Z,33.00
2018-03-04T13:07:28.395Z,34.67
2018-03-04T13:09:56.529Z,32.30
2018-03-04T13:12:25.315Z,34.63
2018-03-04T13:14:53.374Z,33.40
2018-03-04T13:17:21.437Z,34.27
2018-03-04T13:19:49.321Z,33.00
2018-03-04T13:22:17.371Z,33.80
2018-03-04T13:24:45.244Z,33.80
2018-03-04T13:27:13.222Z,33.07
2018-03-04T13:29:41.284Z,33.90
2018-03-04T13:32:09.255Z,34.40
2018-03-04T13:34:37.327Z,34.03
2018-03-04T13:37:05.130Z,40.93
2018-03-04T13:39:33.775Z,34.37
2018-03-04T13:42:01.676Z,34.37
2018-03-04T13:44:30.227Z,33.77
2018-03-04T13:46:58.400Z,33.83
2018-03-04T13:49:26.368Z,33.10
2018-03-04T13:51:54.419Z,32.80
2018-03-04T13:54:22.247Z,33.40
2018-03-04T13:56:50.893Z,33.43
2018-03-04T13:59:18.777Z,32.47
2018-03-04T14:01:46.572Z,34.83
2018-03-04T14:04:15.240Z,57.27
2018-03-04T14:06:44.067Z,37.07
2018-03-04T14:09:11.992Z,36.97
2018-03-04T14:11:40.039Z,34.73
2018-03-04T14:14:08.274Z,33.47
2018-03-04T14:16:36.182Z,36.53
2018-03-04T14:19:04.253Z,35.03
2018-03-04T14:21:32.121Z,34.90
2018-03-04T14:24:00.051Z,34.17
2018-03-04T14:26:28.026Z,34.80
2018-03-04T14:28:55.868Z,36.17
2018-03-04T14:31:24.509Z,35.47
2018-03-04T14:33:52.490Z,35.33
2018-03-04T14:36:20.344Z,36.63
2018-03-04T14:38:48.335Z,38.27
2018-03-04T14:41:16.287Z,38.43
2018-03-04T14:43:44.257Z,38.00
2018-03-04T14:46:12.307Z,37.77
2018-03-04T14:48:40.293Z,36.80
2018-03-04T14:51:08.247Z,36.97
2018-03-04T14:53:36.237Z,39.70
2018-03-04T14:56:04.303Z,38.53
2018-03-04T14:58:32.467Z,39.10
2018-03-04T15:01:00.550Z,39.50
2018-03-04T15:03:28.520Z,38.73
2018-03-04T15:05:56.490Z,39.63
2018-03-04T15:08:24.355Z,39.27
2018-03-04T15:10:52.982Z,39.67
2018-03-04T15:13:21.758Z,40.47
2018-03-04T15:15:49.695Z,39.60
2018-03-04T15:18:17.767Z,40.50
2018-03-04T15:20:45.739Z,39.53
2018-03-04T15:23:13.606Z,40.90
2018-03-04T15:25:41.471Z,39.87
2018-03-04T15:28:09.980Z,38.03
2018-03-04T15:30:38.695Z,54.77
2018-03-04T15:33:06.731Z,41.03
2018-03-04T15:35:34.615Z,49.17
2018-03-04T15:38:03.215Z,40.20
2018-03-04T15:40:31.051Z,38.37
2018-03-04T15:43:00.753Z,38.50
2018-03-04T15:45:28.913Z,39.70
2018-03-04T15:47:56.881Z,40.97
2018-03-04T15:50:25.108Z,39.57
2018-03-04T15:52:53.845Z,39.10
2018-03-04T15:55:21.672Z,38.53
2018-03-04T15:57:49.592Z,39.27
2018-03-04T16:00:17.445Z,40.00
2018-03-04T16:02:46.254Z,39.43
2018-03-04T16:05:14.364Z,41.53
2018-03-04T16:07:42.147Z,39.50
2018-03-04T16:10:09.947Z,41.73
2018-03-04T16:12:37.926Z,41.37
2018-03-04T16:15:05.978Z,40.50
2018-03-04T16:17:33.844Z,102.27
2018-03-04T16:20:01.760Z,71.73
2018-03-04T16:22:29.645Z,42.90
2018-03-04T16:24:57.439Z,41.47
2018-03-04T16:27:25.296Z,41.77
2018-03-04T16:29:53.135Z,42.03
2018-03-04T16:32:20.870Z,42.40
2018-03-04T16:34:48.722Z,41.63
2018-03-04T16:37:16.530Z,41.20
2018-03-04T16:39:44.339Z,42.87
2018-03-04T16:42:12.227Z,40.73
2018-03-04T16:44:40.639Z,41.37
2018-03-04T16:47:09.368Z,55.60
2018-03-04T16:49:37.271Z,42.30
2018-03-04T16:52:05.779Z,41.43
2018-03-04T16:54:33.660Z,40.30
2018-03-04T16:57:01.567Z,41.00
2018-03-04T16:59:29.322Z,38.80
2018-03-04T17:01:57.979Z,92.57
2018-03-04T17:04:25.880Z,80.13
2018-03-04T17:06:53.846Z,41.00
2018-03-04T17:09:21.777Z,41.40
2018-03-04T17:11:49.887Z,41.77
2018-03-04T17:14:17.752Z,41.17
2018-03-04T17:16:45.618Z,41.67
2018-03-04T17:19:13.692Z,42.30
2018-03-04T17:21:41.765Z,40.93
2018-03-04T17:24:09.582Z,40.10
2018-03-04T17:26:37.505Z,40.30
2018-03-04T17:29:05.365Z,39.77
2018-03-04T17:31:33.323Z,39.03
2018-03-04T17:34:01.103Z,39.80
2018-03-04T17:36:28.848Z,39.77
2018-03-04T17:38:56.604Z,40.73
2018-03-04T17:41:24.494Z,40.03
2018-03-04T17:43:52.319Z,38.13
2018-03-04T17:46:20.307Z,39.93
2018-03-04T17:48:48.403Z,41.17
2018-03-04T17:51:16.267Z,39.33
2018-03-04T17:53:44.165Z,39.97
2018-03-04T17:56:13.027Z,38.67
2018-03-04T17:58:41.174Z,40.43
2018-03-04T18:01:09.067Z,40.53
2018-03-04T18:03:37.072Z,40.27
2018-03-04T18:06:05.736Z,39.87
2018-03-04T18:08:34.016Z,37.43
2018-03-04T18:11:02.786Z,38.23
2018-03-04T18:13:30.755Z,40.13
2018-03-04T18:15:58.728Z,38.23
2018-03-04T18:18:27.413Z,38.83
2018-03-04T18:20:55.331Z,40.27
2018-03-04T18:23:23.973Z,38.83
2018-03-04T18:25:52.037Z,40.00
2018-03-04T18:28:19.939Z,39.73
2018-03-04T18:30:49.312Z,39.17
2018-03-04T18:33:17.121Z,39.43
2018-03-04T18:35:44.969Z,39.83
2018-03-04T18:38:14.674Z,39.63
2018-03-04T18:40:42.719Z,40.87
2018-03-04T18:43:11.627Z,38.80
2018-03-04T18:45:39.587Z,37.13
2018-03-04T18:48:07.669Z,37.83
2018-03-04T18:50:35.930Z,37.97
2018-03-04T18:53:03.794Z,38.40
2018-03-04T18:55:32.013Z,37.50
2018-03-04T18:58:00.654Z,38.33
2018-03-04T19:00:28.495Z,55.50
2018-03-04T19:02:56.386Z,58.13
2018-03-04T19:05:24.681Z,38.13
2018-03-04T19:07:52.887Z,38.97
2018-03-04T19:10:21.730Z,37.43
2018-03-04T19:12:49.698Z,39.33
2018-03-04T19:15:17.636Z,38.27
2018-03-04T19:17:45.639Z,38.30
2018-03-04T19:20:13.621Z,38.80
2018-03-04T19:22:42.384Z,37.03
2018-03-04T19:25:10.175Z,37.73
2018-03-04T19:27:37.968Z,37.40
2018-03-04T19:30:06.489Z,72.03
2018-03-04T19:32:34.316Z,119.17
2018-03-04T19:35:02.812Z,107.00
2018-03-04T19:37:30.723Z,53.53
2018-03-04T19:39:58.795Z,41.77
2018-03-04T19:42:26.880Z,39.97
2018-03-04T19:44:55.426Z,39.47
2018-03-04T19:47:23.216Z,40.43
2018-03-04T19:49:51.056Z,41.17
2018-03-04T19:52:18.799Z,39.27
2018-03-04T19:54:46.631Z,43.10
2018-03-04T19:57:14.476Z,40.77
2018-03-04T19:59:42.256Z,39.30
2018-03-04T20:02:10.272Z,38.87
2018-03-04T20:04:38.087Z,40.70
2018-03-04T20:07:05.875Z,39.10
2018-03-04T20:09:34.455Z,36.63
2018-03-04T20:12:02.401Z,39.00
2018-03-04T20:14:30.323Z,38.90
2018-03-04T20:16:59.030Z,41.47
2018-03-04T20:19:26.836Z,55.53
2018-03-04T20:21:54.676Z,47.80
2018-03-04T20:24:22.478Z,42.00
2018-03-04T20:26:51.069Z,41.93
2018-03-04T20:29:19.615Z,43.80
2018-03-04T20:31:47.573Z,42.47
2018-03-04T20:34:15.330Z,98.33
2018-03-04T20:36:43.085Z,82.10
2018-03-04T20:39:10.900Z,45.80
2018-03-04T20:41:38.743Z,43.37
2018-03-04T20:44:06.466Z,42.83
2018-03-04T20:46:34.295Z,48.27
2018-03-04T20:49:02.016Z,42.67
2018-03-04T20:51:29.870Z,44.10
2018-03-04T20:53:57.631Z,45.97
2018-03-04T20:56:25.448Z,44.93
2018-03-04T20:58:53.388Z,43.97
2018-03-04T21:01:21.218Z,44.50
2018-03-04T21:03:49.082Z,42.53
2018-03-04T21:06:16.995Z,42.00
2018-03-04T21:08:44.974Z,43.57
2018-03-04T21:11:13.586Z,42.33
2018-03-04T21:13:41.537Z,44.77
2018-03-04T21:16:09.434Z,44.17
2018-03-04T21:18:38.067Z,44.63
2018-03-04T21:21:05.800Z,42.43
2018-03-04T21:23:33.671Z,44.50
2018-03-04T21:26:01.405Z,43.53
2018-03-04T21:28:29.889Z,40.67
2018-03-04T21:30:58.538Z,42.90
2018-03-04T21:33:26.405Z,44.90
2018-03-04T21:35:54.195Z,72.20
2018-03-04T21:38:22.784Z,54.33
2018-03-04T21:40:50.600Z,97.00
2018-03-04T21:43:18.418Z,100.23
2018-03-04T21:45:47.075Z,52.00
2018-03-04T21:48:14.803Z,40.13
2018-03-04T21:50:42.587Z,40.57
2018-03-04T21:53:10.369Z,41.57
2018-03-04T21:55:38.166Z,40.93
2018-03-04T21:58:06.818Z,40.03
2018-03-04T22:00:34.666Z,41.10
2018-03-04T22:03:02.461Z,40.07
2018-03-04T22:05:30.315Z,40.63
2018-03-04T22:07:58.119Z,41.27
2018-03-04T22:10:26.704Z,40.07
2018-03-04T22:12:55.182Z,39.70
2018-03-04T22:15:23.807Z,39.23
2018-03-04T22:17:51.575Z,41.83
2018-03-04T22:20:19.291Z,42.87
2018-03-04T22:22:47.856Z,43.37
2018-03-04T22:25:15.639Z,41.33
2018-03-04T22:27:44.192Z,43.27
2018-03-04T22:30:12.081Z,40.03
2018-03-04T22:32:39.800Z,42.73
2018-03-04T22:35:07.590Z,49.73
2018-03-04T22:37:35.419Z,45.63
2018-03-04T22:40:03.201Z,45.83
2018-03-04T22:42:30.987Z,43.47
2018-03-04T22:44:58.799Z,43.00
2018-03-04T22:47:26.610Z,43.00
2018-03-04T22:49:54.755Z,43.67
2018-03-04T22:52:22.656Z,42.93
2018-03-04T22:54:50.824Z,42.40
2018-03-04T22:57:18.641Z,42.00
2018-03-04T22:59:47.303Z,43.27
2018-03-04T23:02:15.843Z,41.17
2018-03-04T23:04:43.556Z,44.00
2018-03-04T23:07:12.112Z,42.17
2018-03-04T23:09:40.615Z,40.13
2018-03-04T23:12:08.332Z,42.67
2018-03-04T23:14:36.164Z,41.10
2018-03-04T23:17:04.680Z,44.43
2018-03-04T23:19:32.435Z,44.03
2018-03-04T23:22:00.208Z,43.80
2018-03-04T23:24:27.909Z,44.70
2018-03-04T23:26:55.661Z,44.27
2018-03-04T23:29:23.459Z,44.33
2018-03-04T23:31:52.015Z,46.10
2018-03-04T23:34:19.761Z,43.73
2018-03-04T23:36:47.553Z,43.87
2018-03-04T23:39:15.341Z,43.50
2018-03-04T23:41:43.831Z,42.23
2018-03-04T23:44:11.631Z,41.73
2018-03-04T23:46:39.375Z,41.17
2018-03-04T23:49:07.094Z,61.67
2018-03-04T23:51:34.870Z,82.17
2018-03-04T23:54:03.379Z,65.23
2018-03-04T23:56:31.078Z,62.90
2018-03-04T23:58:58.899Z,39.73
